logo
Search for airport 
image banner adimage banner adimage banner ad
image banner ad

YTSI - Tasman Island

Located in Cape Pillar, Australia

ICAO - , IATA -

Data provided by Airmate  

General information

Coordinates: S43°14'23" E148°0'9"
Elevation is 799 feet MSL.
Magnetic variation is 16° East
View others Airports in Tasmania

Operational data

Special qualification required
Current time UTC:
Current local time:
Weather at : YMHB - Hobart ( 60 km )
METAR: YMHB 232030Z 33005KT 300V020 CAVOK 10/03 Q1010 RF00.0/000.0
TAF: TAF YMHB 232015Z 2321/2418 35008KT CAVOK FM240200 36015G25KT CAVOK FM240800 36012KT CAVOK
View NOTAMs / SUP AIP / TFR affecting this airport [VIEW]
Communications frequencies: [VIEW]

Runways:

Airport contact information

Address: Cape Pillar Australia

Satellite view of YTSI